Time;durP1;ratioP1;P1;durP2;ratioP2;P2;SDS_P1;SDS_P2;PMS_P1;PMS_P2;Temp;Humidity;BMP_temperature;BMP_pressure;BME280_temperature;BME280_humidity;BME280_pressure;Samples;Min_cycle;Max_cycle;Signal;HPM_P1;HPM_P2
2022/03/11 00:01:54;;;;;;;25.48;11.68;;;;;;;;;;6266675;28;20017;-66
2022/03/11 00:04:54;;;;;;;31.52;13.20;;;;;;;;;;6264163;28;20025;-66
2022/03/11 00:07:55;;;;;;;30.50;15.40;;;;;;;;;;6246483;28;20028;-65
2022/03/11 00:10:55;;;;;;;29.27;12.77;;;;;;;;;;6253268;28;20059;-65
2022/03/11 00:13:56;;;;;;;32.17;13.03;;;;;;;;;;6264804;28;20021;-65
2022/03/11 00:16:57;;;;;;;35.65;13.80;;;;;;;;;;6254351;28;20021;-65
2022/03/11 00:19:57;;;;;;;34.00;13.53;;;;;;;;;;6257637;28;20041;-65
2022/03/11 00:22:57;;;;;;;30.57;12.43;;;;;;;;;;6259875;28;20071;-65
2022/03/11 00:25:58;;;;;;;26.20;12.50;;;;;;;;;;6270932;28;20106;-65
2022/03/11 00:28:58;;;;;;;31.20;10.83;;;;;;;;;;6269121;28;20057;-66
2022/03/11 00:31:58;;;;;;;29.98;13.15;;;;;;;;;;6268286;28;20059;-66
2022/03/11 00:34:59;;;;;;;30.37;12.37;;;;;;;;;;6246144;28;20029;-65
2022/03/11 00:37:59;;;;;;;25.53;11.93;;;;;;;;;;6263914;28;20514;-65
2022/03/11 00:41:00;;;;;;;37.63;14.27;;;;;;;;;;6269371;28;20086;-66
2022/03/11 00:44:00;;;;;;;32.95;13.10;;;;;;;;;;6270357;28;20099;-66
2022/03/11 00:47:00;;;;;;;27.73;12.13;;;;;;;;;;6269854;28;20515;-66
2022/03/11 00:50:00;;;;;;;24.17;10.67;;;;;;;;;;6269659;28;20021;-65
2022/03/11 00:53:02;;;;;;;30.60;13.87;;;;;;;;;;6269747;28;20048;-66
2022/03/11 00:56:02;;;;;;;34.75;11.55;;;;;;;;;;6265455;28;20025;-65
2022/03/11 00:59:02;;;;;;;30.03;10.57;;;;;;;;;;6253929;28;20032;-66
2022/03/11 01:02:03;;;;;;;22.63;9.90;;;;;;;;;;6257868;28;20024;-66
2022/03/11 01:05:03;;;;;;;24.80;12.33;;;;;;;;;;6245118;28;20022;-66
2022/03/11 01:08:04;;;;;;;28.33;11.93;;;;;;;;;;6244702;28;20021;-66
2022/03/11 01:11:05;;;;;;;36.70;10.30;;;;;;;;;;6259215;28;20122;-66
2022/03/11 01:14:05;;;;;;;29.48;11.27;;;;;;;;;;6269681;28;20017;-66
2022/03/11 01:17:06;;;;;;;21.17;11.53;;;;;;;;;;6269384;28;20020;-66
2022/03/11 01:20:06;;;;;;;36.13;14.00;;;;;;;;;;6269002;28;20021;-66
2022/03/11 01:23:07;;;;;;;30.80;13.70;;;;;;;;;;6268176;28;20664;-65
2022/03/11 01:26:07;;;;;;;30.37;11.77;;;;;;;;;;6267027;28;20021;-66
2022/03/11 01:29:08;;;;;;;40.90;15.33;;;;;;;;;;6244902;28;20120;-66
2022/03/11 01:32:08;;;;;;;28.57;11.93;;;;;;;;;;6258353;28;20040;-66
2022/03/11 01:35:08;;;;;;;23.57;9.20;;;;;;;;;;6244408;28;20021;-66
2022/03/11 01:38:09;;;;;;;23.67;10.40;;;;;;;;;;6262424;28;20016;-66
2022/03/11 01:41:09;;;;;;;25.47;13.27;;;;;;;;;;6269078;28;20156;-66
2022/03/11 01:44:10;;;;;;;35.23;12.43;;;;;;;;;;6259256;28;20018;-66
2022/03/11 01:47:10;;;;;;;30.97;11.97;;;;;;;;;;6261957;28;20013;-66
2022/03/11 01:50:10;;;;;;;32.33;11.37;;;;;;;;;;6244293;28;20056;-66
2022/03/11 01:53:11;;;;;;;28.85;11.23;;;;;;;;;;6263305;28;20028;-65
2022/03/11 01:56:13;;;;;;;26.13;10.03;;;;;;;;;;6264907;28;20035;-65
2022/03/11 01:59:13;;;;;;;26.52;11.15;;;;;;;;;;6267812;28;20021;-65
2022/03/11 02:02:14;;;;;;;26.10;12.70;;;;;;;;;;6258154;28;20048;-66
2022/03/11 02:05:17;;;;;;;26.70;11.77;;;;;;;;;;6243872;28;20028;-66
2022/03/11 02:08:17;;;;;;;29.98;12.63;;;;;;;;;;6243599;28;20468;-66
2022/03/11 02:11:18;;;;;;;26.37;11.40;;;;;;;;;;6252321;28;20041;-66
2022/03/11 02:14:19;;;;;;;27.10;9.05;;;;;;;;;;6268725;28;20020;-66
2022/03/11 02:17:19;;;;;;;15.73;10.43;;;;;;;;;;6267809;28;20361;-66
2022/03/11 02:20:20;;;;;;;25.40;9.57;;;;;;;;;;6245429;28;20017;-66
2022/03/11 02:23:20;;;;;;;25.30;10.25;;;;;;;;;;6243227;28;20029;-66
2022/03/11 02:26:21;;;;;;;35.40;11.23;;;;;;;;;;6250614;28;20057;-66
2022/03/11 02:29:22;;;;;;;24.02;10.48;;;;;;;;;;6243334;28;20048;-66
2022/03/11 02:32:22;;;;;;;30.10;9.43;;;;;;;;;;6264643;28;20020;-66
2022/03/11 02:35:22;;;;;;;27.80;10.93;;;;;;;;;;6268127;28;20010;-66
2022/03/11 02:38:23;;;;;;;23.40;10.90;;;;;;;;;;6265796;28;20013;-66
2022/03/11 02:41:23;;;;;;;29.63;11.37;;;;;;;;;;6268002;28;20103;-66
2022/03/11 02:44:24;;;;;;;26.20;10.95;;;;;;;;;;6267619;28;20028;-66
2022/03/11 02:47:24;;;;;;;22.25;9.50;;;;;;;;;;6257501;28;20100;-66
2022/03/11 02:50:24;;;;;;;23.83;10.80;;;;;;;;;;6243140;28;20540;-66
2022/03/11 02:53:25;;;;;;;27.73;9.70;;;;;;;;;;6243342;28;20068;-66
2022/03/11 02:56:25;;;;;;;26.33;12.13;;;;;;;;;;6246188;28;20104;-66
2022/03/11 02:59:25;;;;;;;23.27;9.60;;;;;;;;;;6242411;28;20108;-66
2022/03/11 03:02:26;;;;;;;29.38;12.27;;;;;;;;;;6265576;28;20029;-66
2022/03/11 03:05:26;;;;;;;27.60;10.00;;;;;;;;;;6258736;28;20025;-66
2022/03/11 03:08:26;;;;;;;26.83;9.80;;;;;;;;;;6243222;28;20377;-65
2022/03/11 03:11:26;;;;;;;23.73;10.47;;;;;;;;;;6253750;28;20523;-66
2022/03/11 03:14:27;;;;;;;26.27;10.40;;;;;;;;;;6266804;28;20047;-66
2022/03/11 03:17:28;;;;;;;30.80;10.70;;;;;;;;;;6266689;28;20021;-66
2022/03/11 03:20:28;;;;;;;26.30;9.85;;;;;;;;;;6267496;28;20017;-65
2022/03/11 03:23:29;;;;;;;27.20;10.53;;;;;;;;;;6261290;28;20021;-66
2022/03/11 03:26:29;;;;;;;28.20;12.60;;;;;;;;;;6253180;28;20096;-66
2022/03/11 03:29:29;;;;;;;30.50;11.57;;;;;;;;;;6242194;28;20017;-66
2022/03/11 03:32:30;;;;;;;37.43;11.33;;;;;;;;;;6271100;28;20045;-66
2022/03/11 03:35:30;;;;;;;25.37;11.13;;;;;;;;;;6271960;28;20040;-66
2022/03/11 03:38:30;;;;;;;22.23;10.00;;;;;;;;;;6248879;28;20024;-66
2022/03/11 03:41:30;;;;;;;25.27;10.10;;;;;;;;;;6262969;28;20029;-66
2022/03/11 03:44:31;;;;;;;25.03;11.80;;;;;;;;;;6271183;28;20503;-66
2022/03/11 03:47:31;;;;;;;27.80;11.00;;;;;;;;;;6271461;28;20025;-66
2022/03/11 03:50:32;;;;;;;22.97;9.73;;;;;;;;;;6270660;28;20021;-66
2022/03/11 03:53:32;;;;;;;23.27;9.90;;;;;;;;;;6271436;28;20017;-66
2022/03/11 03:56:36;;;;;;;26.73;11.73;;;;;;;;;;6264371;28;20179;-66
2022/03/11 03:59:39;;;;;;;29.58;14.13;;;;;;;;;;6259660;28;20036;-65
2022/03/11 04:02:49;;;;;;;19.15;9.18;;;;;;;;;;6271815;28;20024;-66
2022/03/11 04:05:49;;;;;;;26.10;11.45;;;;;;;;;;6272057;28;20017;-66
2022/03/11 04:08:50;;;;;;;30.87;10.40;;;;;;;;;;6250017;28;20377;-66
2022/03/11 04:11:51;;;;;;;25.27;11.50;;;;;;;;;;6260279;28;20182;-66
2022/03/11 04:14:51;;;;;;;27.83;11.03;;;;;;;;;;6271166;28;20021;-65
2022/03/11 04:17:51;;;;;;;28.37;11.70;;;;;;;;;;6269972;28;20023;-65
2022/03/11 04:20:51;;;;;;;25.93;10.60;;;;;;;;;;6246575;28;20013;-66
2022/03/11 04:23:52;;;;;;;29.93;11.90;;;;;;;;;;6246434;28;20029;-66
2022/03/11 04:26:52;;;;;;;24.07;10.90;;;;;;;;;;6259926;28;20508;-65
2022/03/11 04:29:52;;;;;;;38.57;11.40;;;;;;;;;;6270932;28;20435;-65
2022/03/11 04:32:53;;;;;;;31.97;12.80;;;;;;;;;;6270342;28;20025;-65
2022/03/11 04:35:53;;;;;;;30.83;11.70;;;;;;;;;;6269536;28;20054;-65
2022/03/11 04:38:53;;;;;;;28.63;12.47;;;;;;;;;;6245486;28;20008;-65
2022/03/11 04:41:53;;;;;;;27.60;10.77;;;;;;;;;;6245715;28;20128;-66
2022/03/11 04:44:54;;;;;;;29.47;11.77;;;;;;;;;;6263066;28;20013;-65
2022/03/11 04:47:54;;;;;;;26.90;12.10;;;;;;;;;;6270054;28;20357;-65
2022/03/11 04:50:54;;;;;;;33.43;11.73;;;;;;;;;;6270498;28;20013;-66
2022/03/11 04:53:55;;;;;;;25.40;11.80;;;;;;;;;;6253944;28;20013;-66
2022/03/11 04:56:55;;;;;;;29.07;11.47;;;;;;;;;;6259008;28;20032;-66
2022/03/11 04:59:55;;;;;;;23.63;10.00;;;;;;;;;;6270062;28;20009;-66
2022/03/11 05:02:55;;;;;;;35.33;12.43;;;;;;;;;;6255848;28;20013;-66
2022/03/11 05:05:56;;;;;;;27.53;11.47;;;;;;;;;;6249711;28;20441;-66
2022/03/11 05:08:56;;;;;;;23.97;12.73;;;;;;;;;;6247927;28;20017;-66
2022/03/11 05:11:56;;;;;;;36.50;12.37;;;;;;;;;;6259208;28;20045;-65
2022/03/11 05:14:57;;;;;;;33.13;12.97;;;;;;;;;;6251732;28;20079;-65
2022/03/11 05:17:57;;;;;;;31.33;13.93;;;;;;;;;;6269455;28;20025;-66
2022/03/11 05:20:57;;;;;;;32.37;11.93;;;;;;;;;;6270011;28;20100;-66
2022/03/11 05:23:58;;;;;;;30.00;12.00;;;;;;;;;;6267782;28;20031;-66
2022/03/11 05:26:58;;;;;;;29.40;13.23;;;;;;;;;;6257422;28;20539;-66
2022/03/11 05:29:58;;;;;;;34.50;13.75;;;;;;;;;;6257357;28;20040;-66
2022/03/11 05:32:59;;;;;;;29.77;12.98;;;;;;;;;;6246454;28;20044;-66
2022/03/11 05:35:59;;;;;;;30.75;13.07;;;;;;;;;;6245798;28;20014;-66
2022/03/11 05:38:59;;;;;;;31.42;13.40;;;;;;;;;;6260217;28;20485;-66
2022/03/11 05:41:59;;;;;;;35.22;13.05;;;;;;;;;;6244550;28;20017;-66
2022/03/11 05:45:00;;;;;;;30.70;15.00;;;;;;;;;;6263620;28;20024;-66
2022/03/11 05:48:00;;;;;;;30.43;13.63;;;;;;;;;;6257354;28;20021;-66
2022/03/11 05:51:00;;;;;;;33.75;15.57;;;;;;;;;;6255056;28;20037;-66
2022/03/11 05:54:01;;;;;;;29.15;13.27;;;;;;;;;;6267963;28;20017;-66
2022/03/11 05:57:01;;;;;;;33.72;15.27;;;;;;;;;;6252038;28;20499;-66
2022/03/11 06:00:04;;;;;;;39.15;16.92;;;;;;;;;;6245936;28;20049;-66
2022/03/11 06:03:04;;;;;;;35.55;17.13;;;;;;;;;;6268429;28;20044;-66
2022/03/11 06:06:04;;;;;;;33.28;14.55;;;;;;;;;;6259560;28;20053;-66
2022/03/11 06:09:08;;;;;;;34.00;14.93;;;;;;;;;;6253398;28;20057;-66
2022/03/11 06:12:08;;;;;;;40.30;15.75;;;;;;;;;;6256503;28;20060;-65
2022/03/11 06:15:11;;;;;;;36.92;15.23;;;;;;;;;;6258006;28;20021;-65
2022/03/11 06:18:15;;;;;;;46.17;16.98;;;;;;;;;;6247257;28;20385;-65
2022/03/11 06:21:15;;;;;;;36.95;18.25;;;;;;;;;;6247728;28;20440;-65
2022/03/11 06:24:16;;;;;;;38.95;16.20;;;;;;;;;;6254564;28;20025;-65
2022/03/11 06:27:16;;;;;;;31.13;14.07;;;;;;;;;;6256706;28;20494;-65
2022/03/11 06:30:17;;;;;;;38.33;15.73;;;;;;;;;;6255299;28;20115;-65
2022/03/11 06:33:17;;;;;;;36.53;16.02;;;;;;;;;;6264917;28;20017;-66
2022/03/11 06:36:17;;;;;;;29.98;15.35;;;;;;;;;;6252261;28;20013;-66
2022/03/11 06:39:17;;;;;;;31.63;13.98;;;;;;;;;;6250671;28;20043;-66
2022/03/11 06:42:18;;;;;;;32.55;13.18;;;;;;;;;;6250352;28;20125;-67
2022/03/11 06:45:18;;;;;;;32.35;14.05;;;;;;;;;;6251932;28;20032;-67
2022/03/11 06:48:19;;;;;;;36.78;16.08;;;;;;;;;;6252791;28;20071;-67
2022/03/11 06:51:19;;;;;;;32.67;14.55;;;;;;;;;;6254810;28;20030;-67
2022/03/11 06:54:20;;;;;;;34.58;15.73;;;;;;;;;;6255729;28;20076;-67
2022/03/11 06:57:20;;;;;;;32.42;13.73;;;;;;;;;;6253854;28;20017;-67
2022/03/11 07:00:21;;;;;;;27.27;14.15;;;;;;;;;;6254340;28;20470;-67
2022/03/11 07:03:21;;;;;;;30.55;14.60;;;;;;;;;;6253096;28;20018;-67
2022/03/11 07:06:21;;;;;;;28.85;15.55;;;;;;;;;;6253713;28;20021;-69
2022/03/11 07:09:22;;;;;;;27.20;13.45;;;;;;;;;;6259040;28;20475;-67
2022/03/11 07:12:22;;;;;;;25.95;12.65;;;;;;;;;;6254758;28;20098;-67
2022/03/11 07:15:22;;;;;;;24.42;12.65;;;;;;;;;;6247306;28;20020;-67
2022/03/11 07:18:22;;;;;;;28.42;12.02;;;;;;;;;;6251970;28;20529;-67
2022/03/11 07:21:23;;;;;;;24.67;13.82;;;;;;;;;;6253926;28;20038;-67
2022/03/11 07:24:23;;;;;;;26.42;11.90;;;;;;;;;;6247154;28;20040;-67
2022/03/11 07:27:24;;;;;;;24.52;12.45;;;;;;;;;;6258266;28;20412;-67
2022/03/11 07:30:25;;;;;;;22.47;11.50;;;;;;;;;;6269989;28;20025;-67
2022/03/11 07:33:25;;;;;;;16.92;8.40;;;;;;;;;;6266350;28;20012;-67
2022/03/11 07:36:25;;;;;;;18.75;7.85;;;;;;;;;;6250116;28;20013;-67
2022/03/11 07:39:26;;;;;;;15.82;8.32;;;;;;;;;;6260247;28;20021;-67
2022/03/11 07:42:26;;;;;;;17.35;8.65;;;;;;;;;;6263429;28;20112;-67
2022/03/11 07:45:26;;;;;;;14.90;7.80;;;;;;;;;;6255551;28;20480;-68
2022/03/11 07:48:26;;;;;;;19.10;8.77;;;;;;;;;;6253813;28;20021;-68
2022/03/11 07:51:27;;;;;;;25.08;8.48;;;;;;;;;;6258223;28;20033;-68
2022/03/11 07:54:27;;;;;;;13.60;8.13;;;;;;;;;;6257391;28;20013;-68
2022/03/11 07:57:27;;;;;;;17.27;10.23;;;;;;;;;;6247423;28;20594;-68
2022/03/11 08:00:28;;;;;;;18.02;7.57;;;;;;;;;;6246171;28;20020;-68
2022/03/11 08:03:28;;;;;;;14.40;8.10;;;;;;;;;;6254698;28;20794;-68
2022/03/11 08:06:28;;;;;;;14.43;6.43;;;;;;;;;;6248929;28;20029;-68
2022/03/11 08:09:29;;;;;;;13.35;6.97;;;;;;;;;;6250457;28;20197;-68
2022/03/11 08:12:29;;;;;;;13.15;6.13;;;;;;;;;;6253147;28;20055;-68
2022/03/11 08:15:29;;;;;;;20.80;7.82;;;;;;;;;;6246397;28;20481;-68
2022/03/11 08:18:30;;;;;;;15.57;6.80;;;;;;;;;;6252495;28;20024;-69
2022/03/11 08:21:30;;;;;;;14.48;7.25;;;;;;;;;;6255422;28;20447;-68
2022/03/11 08:24:30;;;;;;;17.38;7.47;;;;;;;;;;6247824;28;20426;-68
2022/03/11 08:27:31;;;;;;;15.90;7.28;;;;;;;;;;6252790;28;20040;-69
2022/03/11 08:30:31;;;;;;;21.30;7.47;;;;;;;;;;6248419;28;20497;-68
2022/03/11 08:33:34;;;;;;;15.43;7.22;;;;;;;;;;6246593;28;20025;-68
2022/03/11 08:36:34;;;;;;;13.20;6.53;;;;;;;;;;6245454;28;20560;-68
2022/03/11 08:39:34;;;;;;;19.13;6.50;;;;;;;;;;6243509;28;20040;-68
2022/03/11 08:42:35;;;;;;;14.52;5.40;;;;;;;;;;6244474;28;20455;-68
2022/03/11 08:45:35;;;;;;;12.15;5.60;;;;;;;;;;6249007;28;20026;-68
2022/03/11 08:48:41;;;;;;;13.15;5.82;;;;;;;;;;6248546;28;20068;-68
2022/03/11 08:51:43;;;;;;;14.90;5.90;;;;;;;;;;6250178;28;20148;-68
2022/03/11 08:54:43;;;;;;;12.05;6.35;;;;;;;;;;6252505;28;20021;-68
2022/03/11 08:57:50;;;;;;;15.00;7.03;;;;;;;;;;6250828;28;20357;-68
2022/03/11 09:00:50;;;;;;;16.08;5.90;;;;;;;;;;6249625;28;20010;-68
2022/03/11 09:03:50;;;;;;;16.73;7.35;;;;;;;;;;6263393;28;20029;-68
2022/03/11 09:06:51;;;;;;;11.82;5.28;;;;;;;;;;6262459;28;20410;-68
2022/03/11 09:09:51;;;;;;;12.60;5.55;;;;;;;;;;6260228;28;20025;-69
2022/03/11 09:12:51;;;;;;;17.15;5.82;;;;;;;;;;6246772;28;20164;-69
2022/03/11 09:15:51;;;;;;;10.15;5.07;;;;;;;;;;6253671;28;20045;-69
2022/03/11 09:18:53;;;;;;;13.30;6.95;;;;;;;;;;6253718;28;20021;-68
2022/03/11 09:21:53;;;;;;;12.48;5.25;;;;;;;;;;6255564;28;20496;-68
2022/03/11 09:24:53;;;;;;;13.13;5.78;;;;;;;;;;6253680;28;20036;-68
2022/03/11 09:27:54;;;;;;;12.95;5.43;;;;;;;;;;6253512;28;20057;-69
2022/03/11 09:30:54;;;;;;;14.70;5.45;;;;;;;;;;6256967;28;20024;-69
2022/03/11 09:33:54;;;;;;;18.77;7.25;;;;;;;;;;6253664;28;20041;-69
2022/03/11 09:36:55;;;;;;;15.40;5.80;;;;;;;;;;6254245;28;20102;-68
2022/03/11 09:39:56;;;;;;;10.98;5.32;;;;;;;;;;6254306;28;20120;-68
2022/03/11 09:42:57;;;;;;;14.25;6.43;;;;;;;;;;6256653;28;20049;-68
2022/03/11 09:45:58;;;;;;;11.00;5.35;;;;;;;;;;6252382;28;20455;-68
2022/03/11 09:48:59;;;;;;;10.15;4.50;;;;;;;;;;6253080;28;20032;-69
2022/03/11 09:51:59;;;;;;;11.32;4.60;;;;;;;;;;6256284;28;20029;-68
2022/03/11 09:55:00;;;;;;;10.07;4.72;;;;;;;;;;6254527;28;20029;-68
2022/03/11 09:58:00;;;;;;;12.07;5.57;;;;;;;;;;6253882;28;20068;-68
2022/03/11 10:01:00;;;;;;;10.77;5.28;;;;;;;;;;6252876;28;20025;-68
2022/03/11 10:04:04;;;;;;;11.20;5.03;;;;;;;;;;6256281;28;20033;-68
2022/03/11 10:07:19;;;;;;;13.40;6.25;;;;;;;;;;6250057;28;20032;-68
2022/03/11 10:10:20;;;;;;;13.55;5.95;;;;;;;;;;6251517;28;20029;-68
2022/03/11 10:13:20;;;;;;;10.07;4.70;;;;;;;;;;6255846;28;20085;-68
2022/03/11 10:16:25;;;;;;;10.27;5.07;;;;;;;;;;6255298;28;20638;-68
2022/03/11 10:19:25;;;;;;;9.88;5.32;;;;;;;;;;6256588;28;20467;-68
2022/03/11 10:22:25;;;;;;;11.77;5.38;;;;;;;;;;6252904;28;20025;-68
2022/03/11 10:25:29;;;;;;;10.52;4.82;;;;;;;;;;6251151;28;20025;-68
2022/03/11 10:28:30;;;;;;;11.57;5.18;;;;;;;;;;6250426;28;20068;-68
2022/03/11 10:31:33;;;;;;;9.93;5.07;;;;;;;;;;6250959;28;20380;-68
2022/03/11 10:34:35;;;;;;;12.25;5.25;;;;;;;;;;6254799;28;20495;-67
2022/03/11 10:37:35;;;;;;;12.83;5.90;;;;;;;;;;6258589;28;20385;-67
2022/03/11 10:40:39;;;;;;;11.27;4.95;;;;;;;;;;6253917;28;20018;-67
2022/03/11 10:43:39;;;;;;;10.85;5.82;;;;;;;;;;6253500;28;20044;-68
2022/03/11 10:46:40;;;;;;;15.10;5.28;;;;;;;;;;6263875;28;20556;-68
2022/03/11 10:49:47;;;;;;;17.20;6.03;;;;;;;;;;6263215;28;20071;-68
2022/03/11 10:52:48;;;;;;;18.45;7.20;;;;;;;;;;6262956;28;20033;-68
2022/03/11 10:55:49;;;;;;;9.85;4.63;;;;;;;;;;6251707;28;20481;-68
2022/03/11 10:58:49;;;;;;;11.23;4.88;;;;;;;;;;6251449;28;20013;-68
2022/03/11 11:01:53;;;;;;;11.63;5.75;;;;;;;;;;6250518;28;20021;-67
2022/03/11 11:04:53;;;;;;;12.45;5.70;;;;;;;;;;6249842;28;20055;-68
2022/03/11 11:07:54;;;;;;;9.68;4.35;;;;;;;;;;6251491;28;20444;-68
2022/03/11 11:10:54;;;;;;;13.07;6.22;;;;;;;;;;6249286;28;20241;-68
2022/03/11 11:13:54;;;;;;;9.57;5.53;;;;;;;;;;6246202;28;20021;-68
2022/03/11 11:16:56;;;;;;;12.85;5.93;;;;;;;;;;6251390;28;20413;-68
2022/03/11 11:19:57;;;;;;;9.63;5.03;;;;;;;;;;6243568;28;20096;-68
2022/03/11 11:22:57;;;;;;;10.98;4.70;;;;;;;;;;6243388;28;20519;-68
2022/03/11 11:25:58;;;;;;;10.00;4.53;;;;;;;;;;6250000;28;20186;-67
2022/03/11 11:29:00;;;;;;;10.98;5.57;;;;;;;;;;6250636;28;20478;-68
2022/03/11 11:32:01;;;;;;;10.57;4.28;;;;;;;;;;6261006;28;20029;-68
2022/03/11 11:35:19;;;;;;;10.13;5.05;;;;;;;;;;6267318;28;20017;-68
2022/03/11 11:38:33;;;;;;;8.90;5.30;;;;;;;;;;6246102;28;20021;-68
2022/03/11 11:41:34;;;;;;;11.77;4.72;;;;;;;;;;6252656;28;20029;-68
2022/03/11 11:44:39;;;;;;;16.75;4.13;;;;;;;;;;6249818;28;20384;-68
2022/03/11 11:47:39;;;;;;;10.13;4.63;;;;;;;;;;6244822;28;20503;-67
2022/03/11 11:50:44;;;;;;;10.32;4.07;;;;;;;;;;6245857;28;20030;-67
2022/03/11 11:53:54;;;;;;;13.70;4.65;;;;;;;;;;6245579;28;20075;-67
2022/03/11 11:57:00;;;;;;;13.63;4.93;;;;;;;;;;6249813;28;20021;-67
2022/03/11 12:00:03;;;;;;;8.52;3.17;;;;;;;;;;6248987;28;20028;-67
2022/03/11 12:03:10;;;;;;;8.88;3.42;;;;;;;;;;6269320;28;20036;-67
2022/03/11 12:06:10;;;;;;;10.27;4.55;;;;;;;;;;6258403;28;20465;-67
2022/03/11 12:09:31;;;;;;;10.65;3.70;;;;;;;;;;6254267;28;20020;-67
2022/03/11 12:12:34;;;;;;;7.32;3.20;;;;;;;;;;6251562;28;20104;-67
2022/03/11 12:15:38;;;;;;;9.77;3.88;;;;;;;;;;6269517;28;20139;-67
2022/03/11 12:18:47;;;;;;;8.55;4.53;;;;;;;;;;6269862;28;20024;-67
2022/03/11 12:21:48;;;;;;;11.05;5.32;;;;;;;;;;6268987;28;20059;-67
2022/03/11 12:25:17;;;;;;;11.80;4.90;;;;;;;;;;6269551;28;20013;-68
2022/03/11 12:28:18;;;;;;;9.75;4.82;;;;;;;;;;6248455;28;20037;-68
2022/03/11 12:31:23;;;;;;;10.88;4.97;;;;;;;;;;6253146;28;20408;-68
2022/03/11 12:34:24;;;;;;;9.10;3.70;;;;;;;;;;6256783;28;20044;-68
2022/03/11 12:37:26;;;;;;;7.50;3.80;;;;;;;;;;6260408;28;20025;-68
2022/03/11 12:40:27;;;;;;;8.73;4.97;;;;;;;;;;6250551;28;20028;-68
2022/03/11 12:43:27;;;;;;;6.80;3.33;;;;;;;;;;6268783;28;20025;-68
2022/03/11 12:46:28;;;;;;;8.52;3.85;;;;;;;;;;6268969;28;20037;-68
2022/03/11 12:49:28;;;;;;;7.72;3.75;;;;;;;;;;6268540;28;20029;-68
2022/03/11 12:52:35;;;;;;;6.47;3.13;;;;;;;;;;6268602;28;20029;-68
2022/03/11 12:55:37;;;;;;;9.38;4.15;;;;;;;;;;6263784;28;20052;-68
2022/03/11 12:58:38;;;;;;;8.95;3.65;;;;;;;;;;6245057;28;20531;-68
2022/03/11 13:01:38;;;;;;;8.38;4.00;;;;;;;;;;6260210;28;20104;-68
2022/03/11 13:04:47;;;;;;;8.85;3.30;;;;;;;;;;6268075;28;20029;-68
2022/03/11 13:07:48;;;;;;;10.23;4.05;;;;;;;;;;6266547;28;20108;-68
2022/03/11 13:10:49;;;;;;;7.25;3.28;;;;;;;;;;6252826;28;20049;-68
2022/03/11 13:13:52;;;;;;;9.95;3.63;;;;;;;;;;6251887;28;20029;-68
2022/03/11 13:16:53;;;;;;;12.48;4.55;;;;;;;;;;6245139;28;20025;-68
2022/03/11 13:19:53;;;;;;;6.13;3.58;;;;;;;;;;6266771;28;20464;-68
2022/03/11 13:22:54;;;;;;;8.95;3.92;;;;;;;;;;6269737;28;20104;-68
2022/03/11 13:25:56;;;;;;;10.82;3.83;;;;;;;;;;6259516;28;20465;-68
2022/03/11 13:28:57;;;;;;;9.90;4.07;;;;;;;;;;6255907;28;20036;-68
2022/03/11 13:31:57;;;;;;;11.93;4.00;;;;;;;;;;6251154;28;20026;-68
2022/03/11 13:34:58;;;;;;;11.10;3.92;;;;;;;;;;6256429;28;20524;-68
2022/03/11 13:37:58;;;;;;;8.98;3.67;;;;;;;;;;6258160;28;20448;-68
2022/03/11 13:40:58;;;;;;;12.00;4.00;;;;;;;;;;6255615;28;20380;-68
2022/03/11 13:44:04;;;;;;;11.27;4.10;;;;;;;;;;6253995;28;20298;-68
2022/03/11 13:47:08;;;;;;;10.90;3.17;;;;;;;;;;6256218;28;20026;-68
2022/03/11 13:50:09;;;;;;;9.02;3.58;;;;;;;;;;6249575;28;20028;-68
2022/03/11 13:53:09;;;;;;;7.93;3.83;;;;;;;;;;6242913;28;20759;-68
2022/03/11 13:56:16;;;;;;;8.18;3.20;;;;;;;;;;6244401;28;20026;-68
2022/03/11 13:59:17;;;;;;;10.57;4.13;;;;;;;;;;6249072;28;20025;-68
2022/03/11 14:02:21;;;;;;;8.27;3.83;;;;;;;;;;6249030;28;20440;-68
2022/03/11 14:05:27;;;;;;;6.38;3.47;;;;;;;;;;6243486;28;20045;-68
2022/03/11 14:08:28;;;;;;;13.55;5.82;;;;;;;;;;6248659;28;20060;-68
2022/03/11 14:11:28;;;;;;;9.57;4.13;;;;;;;;;;6252892;28;20601;-68
2022/03/11 14:14:32;;;;;;;12.68;5.78;;;;;;;;;;6251877;28;20759;-68
2022/03/11 14:17:33;;;;;;;12.50;5.10;;;;;;;;;;6253827;28;20064;-68
2022/03/11 14:20:33;;;;;;;8.15;3.92;;;;;;;;;;6252251;28;20013;-68
2022/03/11 14:23:34;;;;;;;9.30;3.92;;;;;;;;;;6256801;28;20493;-68
2022/03/11 14:26:34;;;;;;;11.15;4.63;;;;;;;;;;6254167;28;20036;-68
2022/03/11 14:29:34;;;;;;;11.60;4.38;;;;;;;;;;6256706;28;20108;-68
2022/03/11 14:32:35;;;;;;;10.13;4.15;;;;;;;;;;6255216;28;20056;-68
2022/03/11 14:35:36;;;;;;;11.98;5.03;;;;;;;;;;6253717;28;20092;-68
2022/03/11 14:38:37;;;;;;;10.80;4.75;;;;;;;;;;6240571;28;20029;-68
2022/03/11 14:41:38;;;;;;;12.27;5.07;;;;;;;;;;6246209;28;20586;-68
2022/03/11 14:44:38;;;;;;;9.90;4.15;;;;;;;;;;6255069;28;20028;-69
2022/03/11 14:47:39;;;;;;;10.40;4.97;;;;;;;;;;6251011;28;20095;-68
2022/03/11 14:50:39;;;;;;;8.53;4.13;;;;;;;;;;6256362;28;20575;-68
2022/03/11 14:53:40;;;;;;;8.85;4.55;;;;;;;;;;6252375;28;20067;-68
2022/03/11 14:56:40;;;;;;;9.27;4.22;;;;;;;;;;6245490;28;20029;-68
2022/03/11 14:59:41;;;;;;;7.47;3.75;;;;;;;;;;6248514;28;20017;-68
2022/03/11 15:02:41;;;;;;;8.95;4.35;;;;;;;;;;6254155;28;20021;-69
2022/03/11 15:05:42;;;;;;;12.85;5.45;;;;;;;;;;6247663;28;20365;-69
2022/03/11 15:08:42;;;;;;;10.90;5.18;;;;;;;;;;6251183;28;20033;-68
2022/03/11 15:11:42;;;;;;;13.45;4.68;;;;;;;;;;6245407;28;20437;-68
2022/03/11 15:14:42;;;;;;;12.90;4.90;;;;;;;;;;6248844;28;20021;-68
2022/03/11 15:17:43;;;;;;;10.77;4.82;;;;;;;;;;6259475;28;20087;-68
2022/03/11 15:20:43;;;;;;;14.23;5.68;;;;;;;;;;6243356;28;20014;-68
2022/03/11 15:23:43;;;;;;;10.77;5.70;;;;;;;;;;6252879;28;20033;-68
2022/03/11 15:26:43;;;;;;;12.45;5.28;;;;;;;;;;6255762;28;20035;-68
2022/03/11 15:29:44;;;;;;;9.18;5.13;;;;;;;;;;6259006;28;20064;-68
2022/03/11 15:32:44;;;;;;;12.07;5.57;;;;;;;;;;6248985;28;20384;-68
2022/03/11 15:35:44;;;;;;;11.73;4.93;;;;;;;;;;6251102;28;20401;-68
2022/03/11 15:38:45;;;;;;;11.80;4.80;;;;;;;;;;6256387;28;20021;-68
2022/03/11 15:41:45;;;;;;;12.25;5.00;;;;;;;;;;6246798;28;20037;-68
2022/03/11 15:44:46;;;;;;;11.93;5.55;;;;;;;;;;6250636;28;20028;-68
2022/03/11 15:47:46;;;;;;;12.40;4.90;;;;;;;;;;6248524;28;20028;-68
2022/03/11 15:50:47;;;;;;;9.93;4.78;;;;;;;;;;6246169;28;20025;-68
2022/03/11 15:53:47;;;;;;;8.23;4.47;;;;;;;;;;6251908;28;20025;-69
2022/03/11 15:56:48;;;;;;;10.82;4.70;;;;;;;;;;6257274;28;20032;-68
2022/03/11 15:59:48;;;;;;;8.70;4.45;;;;;;;;;;6255858;28;20075;-69
2022/03/11 16:02:49;;;;;;;14.50;5.65;;;;;;;;;;6256730;28;20049;-68
2022/03/11 16:05:49;;;;;;;14.27;5.25;;;;;;;;;;6254916;28;20096;-68
2022/03/11 16:08:50;;;;;;;14.70;6.10;;;;;;;;;;6256079;28;20036;-68
2022/03/11 16:11:50;;;;;;;12.32;6.75;;;;;;;;;;6251834;28;20038;-68
2022/03/11 16:14:50;;;;;;;13.45;5.82;;;;;;;;;;6250876;28;20024;-68
2022/03/11 16:17:51;;;;;;;16.55;7.18;;;;;;;;;;6262091;28;20115;-68
2022/03/11 16:20:52;;;;;;;13.50;6.47;;;;;;;;;;6255698;28;20044;-68
2022/03/11 16:23:52;;;;;;;13.05;5.53;;;;;;;;;;6257140;28;20159;-68
2022/03/11 16:26:52;;;;;;;16.15;7.25;;;;;;;;;;6259403;28;20025;-68
2022/03/11 16:29:54;;;;;;;16.92;6.93;;;;;;;;;;6246540;28;20055;-68
2022/03/11 16:32:54;;;;;;;16.80;6.50;;;;;;;;;;6270481;28;20124;-68
2022/03/11 16:35:54;;;;;;;13.68;6.20;;;;;;;;;;6258345;28;20029;-68
2022/03/11 16:38:55;;;;;;;14.07;6.43;;;;;;;;;;6254927;28;20020;-68
2022/03/11 16:41:55;;;;;;;16.35;7.05;;;;;;;;;;6255736;28;20075;-68
2022/03/11 16:44:55;;;;;;;18.73;7.28;;;;;;;;;;6248830;28;20044;-68
2022/03/11 16:47:56;;;;;;;19.48;9.27;;;;;;;;;;6249391;28;20401;-68
2022/03/11 16:50:59;;;;;;;20.10;9.50;;;;;;;;;;6245225;28;20504;-67
2022/03/11 16:53:59;;;;;;;24.38;10.73;;;;;;;;;;6246019;28;20123;-68
2022/03/11 16:56:59;;;;;;;30.48;10.68;;;;;;;;;;6246068;28;20030;-67
2022/03/11 17:00:00;;;;;;;21.83;10.27;;;;;;;;;;6247802;28;20388;-67
2022/03/11 17:03:01;;;;;;;45.20;14.30;;;;;;;;;;6269827;28;20427;-67
2022/03/11 17:06:01;;;;;;;25.40;14.05;;;;;;;;;;6270006;28;20357;-67
2022/03/11 17:09:01;;;;;;;25.30;11.65;;;;;;;;;;6269765;28;20056;-66
2022/03/11 17:12:02;;;;;;;26.58;12.73;;;;;;;;;;6264980;28;20052;-66
2022/03/11 17:15:02;;;;;;;26.02;11.15;;;;;;;;;;6268791;28;20024;-66
2022/03/11 17:18:03;;;;;;;24.77;12.60;;;;;;;;;;6263221;28;20017;-66
2022/03/11 17:21:03;;;;;;;26.30;11.07;;;;;;;;;;6247995;28;20481;-66
2022/03/11 17:24:04;;;;;;;27.15;11.48;;;;;;;;;;6245343;28;20465;-66
2022/03/11 17:27:04;;;;;;;27.27;13.27;;;;;;;;;;6262893;28;20021;-66
2022/03/11 17:30:06;;;;;;;37.38;14.07;;;;;;;;;;6258246;28;20008;-66
2022/03/11 17:33:06;;;;;;;25.27;10.75;;;;;;;;;;6250288;28;20056;-66
2022/03/11 17:36:06;;;;;;;30.23;12.55;;;;;;;;;;6259038;28;20385;-67
2022/03/11 17:39:07;;;;;;;32.42;14.88;;;;;;;;;;6252190;28;20398;-67
2022/03/11 17:42:07;;;;;;;37.38;13.50;;;;;;;;;;6259623;28;20496;-67
2022/03/11 17:45:13;;;;;;;32.47;14.27;;;;;;;;;;6267548;28;20024;-67